Alexander Clark

Scout - Aston Villa
4 Dec 2028
Monday
Process

Personality

Adaptability (13) Ambition (2) Controversy (16) Loyalty (1) Pressure (12) Professionalism (7) Sportsmanship (17) Temperament (9)

Profile

Coaching Style Democratic
License Continental Pro
Determination 15
Man Management 10
Motivating 11
Discipline 9
Job Satisfaction
100%
Fatigue
0%
Role Scout
Wage 79.3K p/w
Contract 14.03.2030

Performance

Behaviour Good
Training Effectiveness
55%
Player Development
30%
Injury Prevention
30%
Tactical Implementation
50%

Recent Events

Attended a recruitment meeting now
Attended a recruitment meeting now
Recommended a transfer target now
Assessed a player 7d ago
Assessed a player 7d ago
Assessed a player 7d ago
Assessed a player 7d ago
Assessed a player 7d ago

Currently Monitoring

178
Player Club Status Ability Confidence Watched Last Observed Latest Vote
Honest Ahanor Atalanta Active 142 / 146 40% 11 29.11.2028 -
Diego León Rotherham United Active 123 / 127 40% 8 29.11.2028 -
Riquelme Thompson-Jones Accrington Stanley Active 116 / 113 40% 1 29.11.2028 -
Tyler Fletcher Rotherham United Active 121 / 126 40% 6 26.11.2028 -
Salvador Blopá Wolverhampton Active 128 / 132 40% 10 26.11.2028 -
José Neto Benfica Active 126 / 124 40% 6 26.11.2028 -
Noah Markmann Esbjerg Active 122 / 120 40% 6 25.11.2028 -
Kiani Inge Groningen Active 115 / 121 40% 1 25.11.2028 -
Luka Vušković Tottenham Active 150 / 155 40% 11 24.11.2028 -
Celías Ingenthron Platense Active 120 / 123 40% 5 24.11.2028 -
Ayyoub Bouaddi Stoke City Active 155 / 155 40% 7 23.11.2028 -
Christos Mouzakitis Hull City Active 139 / 138 40% 10 22.11.2028 -
Veljko Milosavljević Bournemouth Active 152 / 144 40% 6 22.11.2028 -
Harrison Armstrong Ipswich Town Active 142 / 139 40% 5 21.11.2028 -
Miguel Figueiredo Benfica Active 124 / 137 40% 3 21.11.2028 -
Trey Nyoni Rotherham United Active 141 / 141 40% 8 20.11.2028 -
Giovanni Leoni Lincoln City Active 145 / 151 40% 9 20.11.2028 -
Jan Bürger Northampton Town Active 123 / 120 40% 11 19.11.2028 -
Ronan Kpakio AC Milan Active 127 / 140 40% 10 19.11.2028 -
Louis Page Leicester City Active 139 / 134 40% 7 17.11.2028 -
Chris Rigg West Ham United Active 139 / 155 40% 8 15.11.2028 -
Harry Amass Manchester United Active 143 / 154 40% 6 10.11.2028 -
Davinchi Getafe Active 127 / 134 40% 3 10.11.2028 -
Daniel Banjaqui Benfica Active 131 / 138 40% 7 09.11.2028 -
Andrija Bulatović Chamois Niortais Active 131 / 137 40% 4 09.11.2028 -
Josh King Newcastle United Active 147 / 162 40% 1 07.11.2028 -
Andrey Ivlev Nizhniy Novgorod Active 116 / 116 40% 1 28.10.2028 -
Tobías Ramírez River Plate Active 133 / 136 40% 5 24.10.2028 -
Agustín Medina Lanús Active 125 / 121 40% 3 14.10.2028 -
Axel Tape Bayer Leverkusen Active 139 / 149 40% 6 10.10.2028 -
Aarón Martín Al-Qadisiyah Active 125 / 128 40% 3 30.09.2028 -
Ezra Mayers West Ham United Active 132 / 139 40% 2 20.09.2028 -
Tobías Andrada River Plate Active 110 / 112 40% 4 19.09.2028 -
Ayden Heaven Portsmouth Active 150 / 149 40% 1 10.09.2028 -
Robinio Vaz Modena Active 128 / 137 40% 3 19.08.2028 -
Lisandro Piñero Banfield Active 126 / 117 40% 1 19.08.2028 -
Nicolás Barros Schelotto Gimnasia La Plata Active 120 / 128 40% 2 18.08.2028 -
Alphadjo Cissé Lecce Active 135 / 140 40% 1 18.08.2028 -
Lennart Karl TSG Hoffenheim Active 147 / 146 40% 2 17.08.2028 -
Geovany Quenda Watford Active 155 / 163 40% 1 15.08.2028 -
Kerim Alajbegović Modena Active 137 / 142 40% 1 15.08.2028 -
Myles Lewis-Skelly Arsenal Active 157 / 162 40% 1 14.08.2028 -
Tobías Ramírez River Plate Lost 136 / 119 40% 1 14.08.2028 -
Matías Arias Vélez Active 112 / 112 40% 1 11.08.2028 -
Augusto Bando Ascoli Active 116 / 129 40% 1 09.08.2028 -
Eduardo Fernandes Benfica Active 125 / 120 40% 1 09.08.2028 -
Luca Williams-Barnett Walsall Active 128 / 141 40% 1 09.08.2028 -
Ryan Kavuma-McQueen Accrington Stanley Active 125 / 120 40% 1 08.08.2028 -
Ibrahim Fullah Charlton Athletic Active 122 / 134 40% 1 07.08.2028 -
Mateus Mané Burnley Active 143 / 154 40% 1 07.08.2028 -
Babis Kostoulas Oxford United Active 148 / 153 40% 1 07.08.2028 -
Giovanni Cantizano Fulham Active 121 / 130 40% 2 04.08.2028 -
André Miranda Porto Active 118 / 123 40% 1 04.08.2028 -
Jake Evans Crewe Alexandra Active 113 / 124 40% 1 02.08.2028 -
Ryan McAidoo Oldham Athletic Active 131 / 129 40% 1 01.08.2028 -
Bernardo Lima Porto Active 113 / 122 40% 1 01.08.2028 -
Richard Koné Queens Park Rangers Lost 136 / 136 40% 4 03.07.2028 -
Sebastiano Esposito Cagliari Active 146 / 151 40% 7 03.07.2028 -
Brayann Pereira West Bromwich Albion Active 129 / 136 83% 1 02.06.2028 Approve
Benjamin Šeško Manchester United Active 165 / 158 40% 7 31.05.2028 -
Thiago Brentford Active 151 / 159 40% 8 31.05.2028 -
Yousef Salech Cardiff City Lost 133 / 140 40% 7 31.05.2028 -
Aune Heggebø West Bromwich Albion Active 137 / 138 40% 1 30.05.2028 -
João Pedro Chelsea Active 160 / 164 40% 15 25.05.2028 -
Charles De Ketelaere Tottenham Active 157 / 163 40% 2 19.05.2028 -
Fábio Carvalho Brentford Active 150 / 147 40% 6 14.05.2028 -
William Osula Wrexham Active 142 / 141 40% 5 13.05.2028 Monitor
Bradley Barcola Liverpool Active 165 / 156 40% 15 06.05.2028 -
Jayden Danns Bradford City Active 143 / 147 40% 2 06.05.2028 -
Rodrigo Muniz Fulham Active 140 / 136 40% 9 04.05.2028 -
Hugo Ekitiké Liverpool Active 168 / 168 40% 9 26.04.2028 -
Georginio Rutter Brighton Active 157 / 144 40% 8 16.04.2028 -
Kevin Schade Chelsea Active 159 / 152 40% 3 29.03.2028 -
Emanuel Emegha Chelsea Active 145 / 148 40% 4 22.03.2028 -
Wilfried Gnonto Leeds United Active 140 / 138 40% 1 22.03.2028 -
Morgan Rogers Chelsea Active 163 / 155 40% 3 16.03.2028 -
Othmane Maamma Watford Lost 123 / 119 40% 4 14.06.2027 -
Oscar Schwartau Norwich City Active 127 / 124 40% 2 14.06.2027 -
Bazoumana Touré Newcastle United Active 144 / 134 40% 2 14.06.2027 -
Amad Manchester United Active 159 / 155 40% 5 30.05.2027 -
Ryan Gravenberch Liverpool Active 164 / 156 40% 12 30.05.2027 -
Yeremy Pino Crystal Palace Active 153 / 161 40% 5 30.05.2027 -
Xavi Simons Tottenham Active 161 / 160 40% 8 29.05.2027 -
Manu Koné AS Roma Active 166 / 167 40% 8 29.05.2027 -
Pedro Porro Tottenham Active 152 / 152 40% 6 28.05.2027 -
James Garner Everton Active 155 / 140 40% 2 28.05.2027 -
Dejan Kulusevski Tottenham Active 169 / 162 40% 10 25.05.2027 Monitor
Noni Madueke Arsenal Active 157 / 158 40% 5 25.05.2027 -
Rocco Vata Watford Active 124 / 135 40% 1 23.05.2027 -
Aidomo Emakhu Oxford United Active 118 / 126 40% 6 22.05.2027 -
Stiven Shpendi Empoli Active 118 / 113 40% 2 22.05.2027 -
Bryan Mbeumo Manchester United Active 164 / 168 40% 5 20.05.2027 -
Matheus Cunha Manchester United Active 164 / 163 40% 12 19.05.2027 -
Sascha Britschgi AC Milan Active 121 / 135 40% 2 17.05.2027 -
Ethan Williams Peterborough United Active 108 / 125 40% 1 17.05.2027 -
Lucas Bergvall Tottenham Lost 146 / 151 40% 1 17.05.2027 Needs More Info
Sam Bell Bristol City Active 116 / 112 40% 4 15.05.2027 -
Antoine Semenyo Manchester City Active 158 / 151 40% 10 13.05.2027 -
Ryan Oné Sheffield United Active 111 / 110 40% 2 13.05.2027 -
Romelle Donovan Brentford Active 126 / 119 40% 2 13.05.2027 -
Ilyas Ansah Hull City Active 130 / 127 40% 1 12.05.2027 -
Mikkel Damsgaard Brentford Active 151 / 138 40% 2 11.05.2027 -
Giacomo Raspadori Atalanta Active 149 / 155 40% 3 05.05.2027 -
Óscar Mingueza Crystal Palace Active 147 / 146 40% 7 30.04.2027 -
Mohamadou Kanté Crawley Town Active 114 / 114 40% 1 25.04.2027 -
Marezi Portsmouth Active 123 / 129 40% 2 17.04.2027 -
Giorgi Kvernadze Frosinone Active 122 / 128 40% 1 17.04.2027 -
Tyreece Campbell Charlton Athletic Active 115 / 130 40% 2 12.04.2027 -
Savinho Tottenham Active 160 / 150 40% 7 11.04.2027 -
Kirill Glebov CSKA Moscow Active 130 / 124 40% 2 08.04.2027 -
Sindre Walle Egeli Udinese Active 130 / 142 40% 4 05.04.2027 -
Joe Gelhardt Hull City Active 137 / 140 40% 2 05.04.2027 -
Mathys Tel Tottenham Active 146 / 152 40% 2 01.04.2027 -
Pablo Felipe West Ham United Active 135 / 136 40% 2 24.03.2027 -
David Romero Parma Active 123 / 135 40% 1 23.03.2027 -
Florian Wirtz Liverpool Active 171 / 160 40% 1 20.03.2027 -
Antoni Milambo Brentford Active 143 / 136 40% 1 20.03.2027 -
Caleb Yirenkyi Coventry City Active 135 / 138 40% 1 20.03.2027 -
Josh Coburn Millwall Active 117 / 116 40% 2 15.03.2027 -
Callum Hudson-Odoi Nottingham Forest Active 150 / 149 40% 2 11.03.2027 -
Jacob Ramsey Newcastle United Active 148 / 144 40% 3 10.03.2027 -
Leo Castledine Middlesbrough Active 124 / 138 40% 1 10.03.2027 -
Cemran Dansin Orlando Pirates Active 111 / 112 40% 1 09.03.2027 -
Joško Gvardiol Manchester City Active 167 / 162 40% 2 03.03.2027 -
David Ozoh Derby County Active 120 / 117 40% 1 25.01.2027 -
Joseph Leclercq Tottenham Active 147 / 157 40% 5 27.12.2026 -
Luka Gavran Toronto FC Active 107 / 107 40% 2 27.12.2026 -
Josh Keeley Luton Town Active 127 / 120 40% 2 23.12.2026 -
Senne Lammens Manchester United Active 147 / 157 40% 1 23.12.2026 -
James Maddison Tottenham Active 153 / 154 40% 9 22.12.2026 -
Federico Chiesa Liverpool Active 155 / 147 40% 4 22.12.2026 -
Murphy Cooper Plymouth Argyle Active 113 / 122 40% 1 20.12.2026 -
Will Dennis Milton Keynes Dons Active 101 / 100 40% 1 20.12.2026 -
Myles Roberts Cambridge United Active 106 / 115 40% 1 17.12.2026 -
Cheveyo Tsawa Club Brugge Active 110 / 120 40% 1 16.12.2026 -
Philippe Ndinga Philadelphia Union Active 122 / 119 40% 2 12.12.2026 -
Mason Mount Manchester United Active 151 / 151 40% 3 09.12.2026 -
Ismaïla Sarr Crystal Palace Active 146 / 142 40% 2 09.12.2026 -
Itumeleng Grobler Free State Stars Active 92 / 97 40% 4 07.12.2026 -
Roman Celentano FC Cincinnati Active 124 / 126 40% 1 07.12.2026 -
Jadon Sancho Manchester United Active 148 / 146 40% 5 04.12.2026 -
Marvin Keller Chelsea Active 146 / 137 40% 2 04.12.2026 -
Alexis Mac Allister Liverpool Active 159 / 166 40% 6 04.12.2026 -
Killian Cahill Leyton Orient Active 102 / 94 40% 2 04.12.2026 -
Quinten Timber Crystal Palace Active 147 / 153 40% 2 29.11.2026 -
Nico O'Reilly Manchester City Active 157 / 145 40% 3 27.11.2026 -
Xaver Schlager Nottingham Forest Active 151 / 156 40% 2 24.11.2026 -
Grégoire Coudert Burnley Active 129 / 128 40% 2 15.11.2026 -
Fran Vieites Walsall Active 121 / 114 40% 2 15.11.2026 -
Anthony Patterson Wrexham Active 130 / 137 40% 2 11.11.2026 -
Isaac Boehmer Vancouver Whitecaps Active 104 / 104 40% 3 10.11.2026 -
Gladson Amoah Liberty Professionals Active 92 / 98 40% 1 10.11.2026 -
Mile Svilar AS Roma Active 159 / 158 40% 1 09.11.2026 -
Radek Vítek Middlesbrough Active 134 / 129 40% 3 29.10.2026 -
Ifeanyi Emmanuel Niger Tornadoes Active 91 / 110 40% 1 29.10.2026 -
John Pulskamp Sporting Kansas City Active 106 / 121 40% 2 24.10.2026 -
Robin Roefs Sunderland Active 147 / 140 40% 2 24.10.2026 -
CJ dos Santos San Diego Football Club Active 105 / 119 40% 2 24.10.2026 -
Leroy Sané Galatasaray Active 163 / 146 40% 1 24.10.2026 -
Fabián Manchester United Active 163 / 166 40% 2 20.10.2026 -
James Trafford Leeds United Active 135 / 153 40% 1 15.10.2026 -
Kobbie Mainoo Manchester United Active 154 / 153 40% 1 15.10.2026 -
Yaimar Medina Racing Genk Active 122 / 133 40% 1 14.10.2026 -
Giorgi Mamardashvili Liverpool Active 162 / 165 40% 1 12.10.2026 -
Alexander Isak Liverpool Active 175 / 170 40% 1 10.10.2026 -
Matheus Nunes Manchester City Active 163 / 162 40% 1 09.10.2026 -
John Amah Plateau United Active 88 / 84 40% 1 08.10.2026 -
Luis Ingolotti Atlético Tucumán Active 129 / 109 40% 1 05.10.2026 -
Viktor Gyökeres Arsenal Active 155 / 152 40% 4 25.09.2026 -
Cody Gakpo Liverpool Active 162 / 152 40% 2 19.09.2026 -
Martín Zubimendi Arsenal Active 168 / 158 40% 1 19.09.2026 -
Elliot Anderson Manchester City Active 149 / 152 40% 1 15.09.2026 -
Noussair Mazraoui Manchester United Active 144 / 144 40% 1 14.09.2026 -
Jarrod Bowen West Ham United Active 151 / 163 40% 1 13.09.2026 -
Marcus Rashford Manchester United Active 162 / 144 40% 1 13.09.2026 -
Bukayo Saka Arsenal Active 179 / 194 40% 1 11.09.2026 -
Antonee Robinson Fulham Active 153 / 161 40% 1 08.09.2026 -
Morrison Agyemang Charlotte Football Club Active 110 / 125 40% 1 03.08.2026 -